createdAt,value
2023-04-28T00:01:47.996Z,9.93
2023-04-28T00:04:15.703Z,8.00
2023-04-28T00:06:43.299Z,10.38
2023-04-28T00:09:11.053Z,8.30
2023-04-28T00:11:38.658Z,8.10
2023-04-28T00:14:06.308Z,9.05
2023-04-28T00:16:33.505Z,12.68
2023-04-28T00:19:00.945Z,11.38
2023-04-28T00:21:28.739Z,8.40
2023-04-28T00:23:55.973Z,9.25
2023-04-28T00:26:23.249Z,9.43
2023-04-28T00:28:50.444Z,8.18
2023-04-28T00:31:17.760Z,8.35
2023-04-28T00:33:45.283Z,10.30
2023-04-28T00:36:12.511Z,10.13
2023-04-28T00:38:39.828Z,8.35
2023-04-28T00:41:07.286Z,8.63
2023-04-28T00:43:44.904Z,8.10
2023-04-28T00:46:13.606Z,8.45
2023-04-28T00:48:40.914Z,10.48
2023-04-28T00:51:08.567Z,12.05
2023-04-28T00:53:35.732Z,7.18
2023-04-28T00:56:03.674Z,9.88
2023-04-28T00:58:31.112Z,13.05
2023-04-28T01:01:05.440Z,9.85
2023-04-28T01:03:34.865Z,12.23
2023-04-28T01:06:02.387Z,9.15
2023-04-28T01:08:31.248Z,8.50
2023-04-28T01:13:25.758Z,10.70
2023-04-28T01:15:53.113Z,8.52
2023-04-28T01:18:20.264Z,9.73
2023-04-28T01:20:47.388Z,7.22
2023-04-28T01:23:15.097Z,6.85
2023-04-28T01:25:42.784Z,6.95
2023-04-28T01:28:10.409Z,7.35
2023-04-28T01:30:37.530Z,9.98
2023-04-28T01:33:04.887Z,10.32
2023-04-28T01:35:32.203Z,7.07
2023-04-28T01:37:59.795Z,7.95
2023-04-28T01:40:26.967Z,10.60
2023-04-28T01:42:54.158Z,9.30
2023-04-28T01:45:22.819Z,9.77
2023-04-28T01:47:50.033Z,13.10
2023-04-28T01:50:17.472Z,8.25
2023-04-28T01:52:44.595Z,7.80
2023-04-28T01:55:11.836Z,6.20
2023-04-28T01:57:38.922Z,7.10
2023-04-28T02:00:06.967Z,10.15
2023-04-28T02:02:34.391Z,7.45
2023-04-28T02:05:01.815Z,9.50
2023-04-28T02:07:29.005Z,8.27
2023-04-28T02:09:56.118Z,9.00
2023-04-28T02:12:23.316Z,8.30
2023-04-28T02:14:51.464Z,9.05
2023-04-28T02:17:18.642Z,7.72
2023-04-28T02:19:45.933Z,8.02
2023-04-28T02:22:13.107Z,5.80
2023-04-28T02:24:40.615Z,6.53
2023-04-28T02:27:07.949Z,9.60
2023-04-28T02:29:35.122Z,6.97
2023-04-28T02:32:02.634Z,11.13
2023-04-28T02:34:29.784Z,6.70
2023-04-28T02:36:56.893Z,10.65
2023-04-28T02:39:27.061Z,9.45
2023-04-28T02:41:54.570Z,7.70
2023-04-28T02:44:21.896Z,8.02
2023-04-28T02:46:49.039Z,7.47
2023-04-28T02:49:16.280Z,10.52
2023-04-28T02:51:43.575Z,8.75
2023-04-28T02:54:10.740Z,7.45
2023-04-28T02:56:37.932Z,7.70
2023-04-28T02:59:05.042Z,8.38
2023-04-28T03:01:32.368Z,10.07
2023-04-28T03:04:00.453Z,8.82
2023-04-28T03:06:28.376Z,8.50
2023-04-28T03:08:55.572Z,6.53
2023-04-28T03:11:22.712Z,7.35
2023-04-28T03:13:49.890Z,8.40
2023-04-28T03:16:17.298Z,8.40
2023-04-28T03:18:44.570Z,8.18
2023-04-28T03:21:11.743Z,8.25
2023-04-28T03:23:38.834Z,7.00
2023-04-28T03:26:06.152Z,9.25
2023-04-28T03:28:33.488Z,10.50
2023-04-28T03:31:00.818Z,8.25
2023-04-28T03:33:27.958Z,7.22
2023-04-28T03:35:55.374Z,10.48
2023-04-28T03:38:22.746Z,6.57
2023-04-28T03:40:50.048Z,7.28
2023-04-28T03:43:17.168Z,8.05
2023-04-28T03:45:44.384Z,6.90
2023-04-28T03:48:11.536Z,10.48
2023-04-28T03:50:40.970Z,10.45
2023-04-28T03:53:08.308Z,8.90
2023-04-28T03:55:35.463Z,9.13
2023-04-28T03:58:02.662Z,9.75
2023-04-28T04:00:29.762Z,7.15
2023-04-28T04:02:57.222Z,7.57
2023-04-28T04:05:25.107Z,8.73
2023-04-28T04:07:52.406Z,7.25
2023-04-28T04:10:19.607Z,7.70
2023-04-28T04:12:46.728Z,7.80
2023-04-28T04:15:13.917Z,9.52
2023-04-28T04:17:41.176Z,7.68
2023-04-28T04:20:08.641Z,9.52
2023-04-28T04:22:36.430Z,6.97
2023-04-28T04:25:03.642Z,9.77
2023-04-28T04:27:30.906Z,7.53
2023-04-28T04:29:58.332Z,9.35
2023-04-28T04:32:25.520Z,10.15
2023-04-28T04:34:52.854Z,11.02
2023-04-28T04:37:19.971Z,9.95
2023-04-28T04:39:47.172Z,10.57
2023-04-28T04:42:24.782Z,10.82
2023-04-28T04:44:53.466Z,7.57
2023-04-28T04:47:20.580Z,8.55
2023-04-28T04:49:49.448Z,7.20
2023-04-28T04:52:16.954Z,9.18
2023-04-28T04:54:44.288Z,10.35
2023-04-28T04:57:11.887Z,10.75
2023-04-28T04:59:39.032Z,10.63
2023-04-28T05:02:06.234Z,12.25
2023-04-28T05:04:33.432Z,9.15
2023-04-28T05:07:00.858Z,10.43
2023-04-28T05:09:29.070Z,8.10
2023-04-28T05:11:56.221Z,8.93
2023-04-28T05:14:23.764Z,9.70
2023-04-28T05:16:51.120Z,11.45
2023-04-28T05:19:18.327Z,11.52
2023-04-28T05:21:47.582Z,11.00
2023-04-28T05:24:15.649Z,10.77
2023-04-28T05:26:43.107Z,13.68
2023-04-28T05:29:10.488Z,14.18
2023-04-28T05:31:37.643Z,12.05
2023-04-28T05:34:04.848Z,12.60
2023-04-28T05:36:32.050Z,12.88
2023-04-28T05:39:00.642Z,13.82
2023-04-28T05:41:27.792Z,12.57
2023-04-28T05:43:54.913Z,15.25
2023-04-28T05:46:30.049Z,16.70
2023-04-28T05:48:58.212Z,15.18
2023-04-28T05:51:25.445Z,15.95
2023-04-28T05:53:52.623Z,13.85
2023-04-28T05:56:19.812Z,16.83
2023-04-28T05:58:48.046Z,18.00
2023-04-28T06:01:15.203Z,15.80
2023-04-28T06:03:42.622Z,16.20
2023-04-28T06:06:10.901Z,13.55
2023-04-28T06:08:38.628Z,20.42
2023-04-28T06:11:06.165Z,15.88
2023-04-28T06:13:33.325Z,13.38
2023-04-28T06:16:00.813Z,15.00
2023-04-28T06:18:30.730Z,17.05
2023-04-28T06:20:57.870Z,12.52
2023-04-28T06:23:25.292Z,16.25
2023-04-28T06:25:52.445Z,14.95
2023-04-28T06:28:19.808Z,14.02
2023-04-28T06:30:47.259Z,17.23
2023-04-28T06:33:14.485Z,15.25
2023-04-28T06:35:41.821Z,16.83
2023-04-28T06:38:09.035Z,14.98
2023-04-28T06:40:36.758Z,14.40
2023-04-28T06:43:03.965Z,17.55
2023-04-28T06:45:31.521Z,17.00
2023-04-28T06:47:59.962Z,15.27
2023-04-28T06:50:27.347Z,16.42
2023-04-28T06:52:54.724Z,17.83
2023-04-28T06:55:22.170Z,17.67
2023-04-28T06:57:49.637Z,16.15
2023-04-28T07:00:17.029Z,17.48
2023-04-28T07:02:44.370Z,18.08
2023-04-28T07:05:13.075Z,18.67
2023-04-28T07:07:41.241Z,17.95
2023-04-28T07:10:08.727Z,18.40
2023-04-28T07:12:35.880Z,17.48
2023-04-28T07:15:03.017Z,19.67
2023-04-28T07:17:30.226Z,20.80
2023-04-28T07:19:57.510Z,19.90
2023-04-28T07:22:24.814Z,16.65
2023-04-28T07:24:51.917Z,18.77
2023-04-28T07:27:19.367Z,18.25
2023-04-28T07:29:46.890Z,16.73
2023-04-28T07:32:14.080Z,20.20
2023-04-28T07:34:41.353Z,17.75
2023-04-28T07:37:08.562Z,18.55
2023-04-28T07:39:35.815Z,18.63
2023-04-28T07:42:03.644Z,20.23
2023-04-28T07:44:31.467Z,19.00
2023-04-28T07:46:59.934Z,18.83
2023-04-28T07:49:28.105Z,18.40
2023-04-28T07:51:56.025Z,18.88
2023-04-28T07:54:23.499Z,19.13
2023-04-28T07:56:50.703Z,16.67
2023-04-28T07:59:17.912Z,17.83
2023-04-28T08:01:45.087Z,19.77
2023-04-28T08:04:12.521Z,19.05
2023-04-28T08:06:40.361Z,17.75
2023-04-28T08:09:07.650Z,22.02
2023-04-28T08:11:34.983Z,21.02
2023-04-28T08:14:03.336Z,18.80
2023-04-28T08:16:31.519Z,20.17
2023-04-28T08:19:00.059Z,21.13
2023-04-28T08:21:27.418Z,21.52
2023-04-28T08:23:54.658Z,25.33
2023-04-28T08:26:21.855Z,23.02
2023-04-28T08:28:49.057Z,20.67
2023-04-28T08:31:16.673Z,24.27
2023-04-28T08:33:44.800Z,24.40
2023-04-28T08:36:12.151Z,26.35
2023-04-28T08:38:39.343Z,28.45
2023-04-28T08:41:06.532Z,22.65
2023-04-28T08:43:35.852Z,25.45
2023-04-28T08:46:07.086Z,26.15
2023-04-28T08:48:45.368Z,26.35
2023-04-28T08:51:16.926Z,26.95
2023-04-28T08:54:11.750Z,25.15
2023-04-28T08:56:35.289Z,24.95
2023-04-28T08:59:05.679Z,31.30
2023-04-28T09:01:33.194Z,26.10
2023-04-28T09:04:04.213Z,25.60
2023-04-28T09:06:36.583Z,27.58
2023-04-28T09:09:39.791Z,20.55
2023-04-28T09:12:09.682Z,26.90
2023-04-28T09:14:37.902Z,27.02
2023-04-28T09:17:17.325Z,24.05
2023-04-28T09:19:44.753Z,25.02
2023-04-28T09:22:25.690Z,25.92
2023-04-28T09:24:55.594Z,24.60
2023-04-28T09:27:28.968Z,22.75
2023-04-28T09:29:56.598Z,22.42
2023-04-28T09:32:24.504Z,20.67
2023-04-28T09:34:53.808Z,20.77
2023-04-28T09:37:25.887Z,20.17
2023-04-28T09:39:54.073Z,20.17
2023-04-28T09:42:36.517Z,19.30
2023-04-28T09:45:16.634Z,17.25
2023-04-28T09:47:45.291Z,18.90
2023-04-28T09:50:14.996Z,17.77
2023-04-28T09:52:42.791Z,18.40
2023-04-28T09:55:10.278Z,18.65
2023-04-28T09:57:37.590Z,18.27
2023-04-28T10:00:09.621Z,17.83
2023-04-28T10:05:09.984Z,20.52
2023-04-28T10:07:37.710Z,18.25
2023-04-28T10:10:05.385Z,17.48
2023-04-28T10:12:33.750Z,18.60
2023-04-28T10:15:00.959Z,20.13
2023-04-28T10:17:29.640Z,21.73
2023-04-28T10:19:57.529Z,16.63
2023-04-28T10:22:24.851Z,16.83
2023-04-28T10:25:02.580Z,20.15
2023-04-28T10:27:31.589Z,19.17
2023-04-28T10:35:22.871Z,19.98
2023-04-28T10:38:06.183Z,19.52
2023-04-28T10:40:34.463Z,20.95
2023-04-28T10:43:01.795Z,21.10
2023-04-28T10:45:48.141Z,21.52
2023-04-28T10:48:18.895Z,24.10
2023-04-28T10:51:12.740Z,23.92
2023-04-28T10:53:46.493Z,23.33
2023-04-28T10:56:18.806Z,25.95
2023-04-28T10:58:46.603Z,26.10
2023-04-28T11:01:19.943Z,26.58
2023-04-28T11:03:51.699Z,24.63
2023-04-28T11:06:28.930Z,28.60
2023-04-28T11:09:02.271Z,25.55
2023-04-28T11:11:30.158Z,24.77
2023-04-28T11:14:18.297Z,27.15
2023-04-28T11:16:55.604Z,22.83
2023-04-28T11:19:26.837Z,24.02
2023-04-28T11:21:56.013Z,23.55
2023-04-28T11:24:25.617Z,21.90
2023-04-28T11:26:53.346Z,19.45
2023-04-28T11:29:31.734Z,17.15
2023-04-28T11:31:58.895Z,15.35
2023-04-28T11:34:26.745Z,14.18
2023-04-28T11:36:54.985Z,14.07
2023-04-28T11:39:32.543Z,15.63
2023-04-28T11:42:03.594Z,12.32
2023-04-28T11:44:32.367Z,14.38
2023-04-28T11:47:00.999Z,17.98
2023-04-28T11:49:30.177Z,14.32
2023-04-28T11:52:00.188Z,14.65
2023-04-28T11:54:28.787Z,13.57
2023-04-28T11:56:57.732Z,13.10
2023-04-28T11:59:27.010Z,10.93
2023-04-28T12:01:56.038Z,12.00
2023-04-28T12:06:59.179Z,10.38
2023-04-28T12:09:26.530Z,12.20
2023-04-28T12:11:57.695Z,9.05
2023-04-28T12:14:25.831Z,9.90
2023-04-28T12:16:53.772Z,8.95
2023-04-28T12:19:21.351Z,9.93
2023-04-28T12:22:05.484Z,9.02
2023-04-28T12:24:33.067Z,6.82
2023-04-28T12:27:16.241Z,6.78
2023-04-28T12:29:46.377Z,6.22
2023-04-28T12:32:14.182Z,4.07
2023-04-28T12:34:42.574Z,5.65
2023-04-28T12:37:10.026Z,3.70
2023-04-28T12:39:39.658Z,4.47
2023-04-28T12:42:07.431Z,3.80
2023-04-28T12:44:35.779Z,4.55
2023-04-28T12:47:11.214Z,7.78
2023-04-28T12:49:38.667Z,5.05
2023-04-28T12:52:06.843Z,4.65
2023-04-28T12:54:34.106Z,5.50
2023-04-28T12:57:01.738Z,3.55
2023-04-28T12:59:29.012Z,3.75
2023-04-28T13:01:56.184Z,3.63
2023-04-28T13:04:24.005Z,4.05
2023-04-28T13:06:51.876Z,4.47
2023-04-28T13:09:19.054Z,5.80
2023-04-28T13:11:47.094Z,5.30
2023-04-28T13:14:19.607Z,6.85
2023-04-28T13:16:47.389Z,5.93
2023-04-28T13:19:14.706Z,5.47
2023-04-28T13:21:43.012Z,5.80
2023-04-28T13:24:10.691Z,5.60
2023-04-28T13:26:38.682Z,6.80
2023-04-28T13:29:07.813Z,6.03
2023-04-28T13:31:37.398Z,6.70
2023-04-28T13:34:06.157Z,7.32
2023-04-28T13:36:33.933Z,6.55
2023-04-28T13:39:02.465Z,6.28
2023-04-28T13:41:29.972Z,5.68
2023-04-28T13:43:57.145Z,7.18
2023-04-28T13:46:24.418Z,6.38
2023-04-28T13:48:51.626Z,6.78
2023-04-28T13:51:18.835Z,7.18
2023-04-28T13:53:46.653Z,7.00
2023-04-28T13:56:13.829Z,7.72
2023-04-28T13:58:41.530Z,6.57
2023-04-28T14:01:09.041Z,7.60
2023-04-28T14:03:36.578Z,7.30
2023-04-28T14:06:04.600Z,8.63
2023-04-28T14:08:32.450Z,7.47
2023-04-28T14:10:59.630Z,5.85
2023-04-28T14:13:27.077Z,8.05
2023-04-28T14:15:59.110Z,7.53
2023-04-28T14:18:27.310Z,7.93
2023-04-28T14:20:54.557Z,8.57
2023-04-28T14:23:22.785Z,10.50
2023-04-28T14:25:50.446Z,8.68
2023-04-28T14:28:17.850Z,8.93
2023-04-28T14:30:45.233Z,9.43
2023-04-28T14:33:12.402Z,7.47
2023-04-28T14:35:41.542Z,8.43
2023-04-28T14:38:09.239Z,9.00
2023-04-28T14:40:36.674Z,10.27
2023-04-28T14:43:05.294Z,11.23
2023-04-28T14:48:00.549Z,13.02
2023-04-28T14:50:27.841Z,12.82
2023-04-28T14:52:54.979Z,12.38
2023-04-28T14:55:22.413Z,15.38
2023-04-28T14:57:49.632Z,16.10
2023-04-28T15:00:17.221Z,15.88
2023-04-28T15:02:44.570Z,18.67
2023-04-28T15:05:12.563Z,17.58
2023-04-28T15:07:40.194Z,20.00
2023-04-28T15:10:07.657Z,18.10
2023-04-28T15:12:37.003Z,18.40
2023-04-28T15:15:04.361Z,22.42
2023-04-28T15:17:32.194Z,19.25
2023-04-28T15:19:59.706Z,18.95
2023-04-28T15:22:26.929Z,21.42
2023-04-28T15:24:58.841Z,20.33
2023-04-28T15:27:26.105Z,17.70
2023-04-28T15:29:55.742Z,15.30
2023-04-28T15:37:53.063Z,15.05
2023-04-28T15:40:21.770Z,17.05
2023-04-28T15:42:49.757Z,16.75
2023-04-28T15:45:18.555Z,15.07
2023-04-28T15:47:47.032Z,16.35
2023-04-28T15:50:14.551Z,17.02
2023-04-28T15:52:48.462Z,15.95
2023-04-28T15:55:17.253Z,17.85
2023-04-28T15:57:44.761Z,17.92
2023-04-28T16:00:12.944Z,20.95
2023-04-28T16:02:40.661Z,22.05
2023-04-28T16:05:12.640Z,21.13
2023-04-28T16:07:41.318Z,21.70
2023-04-28T16:10:08.948Z,21.13
2023-04-28T16:12:36.363Z,20.70
2023-04-28T16:15:04.157Z,22.40
2023-04-28T16:17:31.501Z,23.25
2023-04-28T16:20:03.377Z,19.30
2023-04-28T16:22:30.656Z,23.42
2023-04-28T16:25:01.422Z,25.00
2023-04-28T16:27:31.100Z,23.55
2023-04-28T16:30:00.487Z,26.60
2023-04-28T16:32:27.812Z,22.73
2023-04-28T16:34:58.400Z,20.90
2023-04-28T16:37:25.923Z,19.85
2023-04-28T16:39:53.174Z,20.58
2023-04-28T16:42:23.244Z,20.25
2023-04-28T16:47:33.646Z,21.45
2023-04-28T16:52:42.829Z,17.67
2023-04-28T16:55:11.011Z,19.45
2023-04-28T16:57:38.952Z,20.30
2023-04-28T17:00:06.529Z,15.27
2023-04-28T17:02:34.577Z,14.18
2023-04-28T17:05:02.085Z,14.38
2023-04-28T17:07:30.627Z,12.95
2023-04-28T17:09:57.874Z,12.73
2023-04-28T17:12:25.291Z,13.77
2023-04-28T17:14:52.870Z,13.30
2023-04-28T17:17:20.123Z,12.27
2023-04-28T17:19:48.768Z,14.05
2023-04-28T17:22:16.025Z,11.68
2023-04-28T17:24:44.796Z,10.88
2023-04-28T17:27:11.991Z,11.30
2023-04-28T17:29:40.602Z,8.82
2023-04-28T17:44:25.596Z,4.72
2023-04-28T17:46:52.832Z,3.92
2023-04-28T17:49:20.576Z,3.72
2023-04-28T17:51:47.730Z,5.43
2023-04-28T17:54:14.834Z,5.60
2023-04-28T17:56:42.478Z,4.18
2023-04-28T17:59:09.792Z,2.85
2023-04-28T18:01:37.954Z,3.72
2023-04-28T18:04:05.244Z,3.72
2023-04-28T18:06:34.244Z,4.97
2023-04-28T18:09:01.744Z,4.85
2023-04-28T18:11:29.151Z,2.67
2023-04-28T18:13:58.875Z,7.65
2023-04-28T18:16:28.155Z,8.98
2023-04-28T18:18:57.301Z,8.25
2023-04-28T18:21:25.103Z,11.88
2023-04-28T18:23:52.526Z,15.50
2023-04-28T18:26:22.184Z,17.23
2023-04-28T18:28:49.414Z,18.98
2023-04-28T18:31:17.153Z,20.77
2023-04-28T18:33:45.154Z,17.83
2023-04-28T18:36:12.691Z,22.10
2023-04-28T18:38:40.693Z,22.58
2023-04-28T18:41:17.946Z,21.80
2023-04-28T18:43:45.589Z,23.90
2023-04-28T18:46:12.821Z,23.30
2023-04-28T18:48:40.447Z,26.15
2023-04-28T18:51:10.142Z,24.73
2023-04-28T18:53:37.504Z,23.35
2023-04-28T18:56:04.831Z,28.50
2023-04-28T18:58:32.758Z,27.42
2023-04-28T19:01:00.069Z,32.17
2023-04-28T19:03:28.250Z,30.70
2023-04-28T19:05:55.713Z,31.85
2023-04-28T19:08:23.360Z,31.98
2023-04-28T19:10:50.930Z,29.70
2023-04-28T19:13:18.418Z,35.30
2023-04-28T19:15:45.779Z,34.20
2023-04-28T19:18:13.230Z,33.50
2023-04-28T19:20:42.162Z,33.03
2023-04-28T19:23:09.656Z,31.83
2023-04-28T19:25:36.932Z,38.92
2023-04-28T19:28:04.556Z,37.60
2023-04-28T19:30:31.822Z,34.92
2023-04-28T19:32:59.240Z,36.85
2023-04-28T19:35:27.174Z,34.55
2023-04-28T19:37:55.946Z,37.83
2023-04-28T19:40:23.550Z,36.00
2023-04-28T19:42:51.267Z,40.13
2023-04-28T19:45:19.092Z,41.55
2023-04-28T19:47:46.464Z,39.22
2023-04-28T19:50:13.720Z,34.50
2023-04-28T19:52:41.819Z,36.35
2023-04-28T19:55:09.202Z,38.20
2023-04-28T19:57:36.617Z,39.75
2023-04-28T20:00:04.455Z,38.08
2023-04-28T20:02:32.164Z,43.53
2023-04-28T20:04:59.577Z,40.92
2023-04-28T20:07:26.774Z,36.40
2023-04-28T20:09:56.147Z,40.22
2023-04-28T20:12:23.483Z,40.90
2023-04-28T20:14:54.275Z,32.80
2023-04-28T20:17:21.723Z,42.33
2023-04-28T20:19:49.269Z,38.08
2023-04-28T20:22:16.722Z,38.58
2023-04-28T20:24:44.480Z,39.28
2023-04-28T20:27:12.768Z,47.65
2023-04-28T20:29:40.142Z,37.88
2023-04-28T20:32:07.424Z,42.63
2023-04-28T20:34:34.754Z,48.35
2023-04-28T20:37:06.519Z,49.83
2023-04-28T20:39:33.801Z,43.72
2023-04-28T20:42:02.158Z,50.20
2023-04-28T20:44:29.364Z,42.70
2023-04-28T20:46:57.140Z,42.42
2023-04-28T20:49:24.557Z,38.53
2023-04-28T20:51:51.976Z,51.22
2023-04-28T20:54:19.302Z,41.28
2023-04-28T20:56:46.458Z,54.75
2023-04-28T20:59:13.716Z,51.00
2023-04-28T21:01:41.226Z,53.78
2023-04-28T21:04:08.894Z,53.47
2023-04-28T21:06:36.650Z,58.30
2023-04-28T21:09:04.037Z,57.90
2023-04-28T21:11:31.414Z,42.75
2023-04-28T21:13:58.689Z,67.65
2023-04-28T21:16:26.106Z,72.82
2023-04-28T21:18:55.439Z,60.08
2023-04-28T21:21:22.747Z,54.55
2023-04-28T21:23:50.038Z,53.85
2023-04-28T21:26:17.235Z,49.40
2023-04-28T21:28:44.544Z,42.75
2023-04-28T21:31:11.907Z,55.33
2023-04-28T21:33:39.185Z,57.63
2023-04-28T21:36:09.890Z,49.78
2023-04-28T21:38:39.018Z,40.45
2023-04-28T21:41:07.538Z,49.72
2023-04-28T21:43:35.145Z,44.58
2023-04-28T21:46:02.344Z,46.78
2023-04-28T21:48:29.609Z,45.35
2023-04-28T21:50:56.979Z,40.42
2023-04-28T21:53:24.226Z,26.60
2023-04-28T21:55:51.685Z,44.88
2023-04-28T21:58:18.834Z,43.40
2023-04-28T22:00:47.088Z,46.67
2023-04-28T22:03:15.424Z,41.17
2023-04-28T22:05:43.110Z,38.70
2023-04-28T22:08:10.318Z,41.42
2023-04-28T22:10:37.592Z,38.70
2023-04-28T22:13:05.560Z,39.25
2023-04-28T22:15:33.078Z,41.92
2023-04-28T22:18:00.413Z,37.47
2023-04-28T22:20:27.778Z,39.95
2023-04-28T22:22:55.090Z,40.30
2023-04-28T22:25:22.566Z,33.28
2023-04-28T22:27:49.856Z,36.95
2023-04-28T22:30:17.094Z,29.23
2023-04-28T22:32:44.812Z,34.03
2023-04-28T22:35:12.731Z,27.98
2023-04-28T22:37:40.192Z,21.15
2023-04-28T22:40:08.435Z,28.73
2023-04-28T22:42:42.665Z,33.05
2023-04-28T22:45:10.649Z,27.92
2023-04-28T22:47:39.048Z,30.38
2023-04-28T22:50:07.974Z,24.73
2023-04-28T22:55:02.346Z,21.50
2023-04-28T22:57:29.465Z,24.63
2023-04-28T22:59:56.610Z,24.60
2023-04-28T23:02:24.040Z,25.27
2023-04-28T23:04:51.438Z,23.60
2023-04-28T23:07:18.741Z,30.48
2023-04-28T23:09:46.058Z,23.75
2023-04-28T23:12:13.205Z,26.60
2023-04-28T23:14:40.572Z,23.08
2023-04-28T23:17:07.734Z,25.25
2023-04-28T23:19:47.360Z,26.80
2023-04-28T23:22:14.520Z,27.42
2023-04-28T23:24:42.514Z,27.73
2023-04-28T23:27:09.909Z,27.65
2023-04-28T23:29:37.728Z,19.40
2023-04-28T23:32:05.182Z,20.05
2023-04-28T23:34:32.409Z,26.05
2023-04-28T23:36:59.829Z,23.40
2023-04-28T23:39:29.909Z,28.98
2023-04-28T23:41:57.134Z,25.75
2023-04-28T23:44:24.254Z,28.35
2023-04-28T23:46:51.375Z,23.63
2023-04-28T23:49:18.692Z,28.90
2023-04-28T23:51:45.824Z,29.98
2023-04-28T23:54:13.191Z,32.28
2023-04-28T23:56:40.397Z,33.80
2023-04-28T23:59:08.391Z,34.58
